sensor_id;sensor_type;location;lat;lon;timestamp;temperature;humidity
6206;DHT22;3136;48.788;9.772;2023-06-14T00:00:47;11.20;59.70
6206;DHT22;3136;48.788;9.772;2023-06-14T00:03:14;11.10;61.90
6206;DHT22;3136;48.788;9.772;2023-06-14T00:05:43;11.10;62.30
6206;DHT22;3136;48.788;9.772;2023-06-14T00:08:09;11.10;63.80
6206;DHT22;3136;48.788;9.772;2023-06-14T00:10:38;11.10;64.80
6206;DHT22;3136;48.788;9.772;2023-06-14T00:13:07;11.00;64.30
6206;DHT22;3136;48.788;9.772;2023-06-14T00:15:33;11.00;65.80
6206;DHT22;3136;48.788;9.772;2023-06-14T00:17:59;10.90;66.40
6206;DHT22;3136;48.788;9.772;2023-06-14T00:20:28;10.90;69.20
6206;DHT22;3136;48.788;9.772;2023-06-14T00:22:54;10.80;91.20
6206;DHT22;3136;48.788;9.772;2023-06-14T00:25:23;10.80;70.30
6206;DHT22;3136;48.788;9.772;2023-06-14T00:27:55;10.70;71.50
6206;DHT22;3136;48.788;9.772;2023-06-14T00:30:21;10.70;71.50
6206;DHT22;3136;48.788;9.772;2023-06-14T00:32:47;10.60;73.40
6206;DHT22;3136;48.788;9.772;2023-06-14T00:35:13;10.60;72.50
6206;DHT22;3136;48.788;9.772;2023-06-14T00:37:39;10.50;73.40
6206;DHT22;3136;48.788;9.772;2023-06-14T00:40:05;10.50;74.80
6206;DHT22;3136;48.788;9.772;2023-06-14T00:42:31;10.50;94.30
6206;DHT22;3136;48.788;9.772;2023-06-14T00:44:57;10.40;74.60
6206;DHT22;3136;48.788;9.772;2023-06-14T00:47:23;10.40;74.50
6206;DHT22;3136;48.788;9.772;2023-06-14T00:49:50;10.40;77.60
6206;DHT22;3136;48.788;9.772;2023-06-14T00:52:19;10.40;78.80
6206;DHT22;3136;48.788;9.772;2023-06-14T00:54:45;10.40;79.20
6206;DHT22;3136;48.788;9.772;2023-06-14T00:57:11;10.40;78.30
6206;DHT22;3136;48.788;9.772;2023-06-14T00:59:43;10.40;77.80
6206;DHT22;3136;48.788;9.772;2023-06-14T01:02:09;10.40;78.00
6206;DHT22;3136;48.788;9.772;2023-06-14T01:04:35;10.40;77.80
6206;DHT22;3136;48.788;9.772;2023-06-14T01:10:11;10.30;79.80
6206;DHT22;3136;48.788;9.772;2023-06-14T01:13:02;10.20;80.10
6206;DHT22;3136;48.788;9.772;2023-06-14T01:15:30;10.20;82.80
6206;DHT22;3136;48.788;9.772;2023-06-14T01:17:56;10.20;83.60
6206;DHT22;3136;48.788;9.772;2023-06-14T01:20:29;10.20;84.80
6206;DHT22;3136;48.788;9.772;2023-06-14T01:22:56;10.10;85.50
6206;DHT22;3136;48.788;9.772;2023-06-14T01:25:22;10.10;82.90
6206;DHT22;3136;48.788;9.772;2023-06-14T01:27:50;10.10;84.60
6206;DHT22;3136;48.788;9.772;2023-06-14T01:30:17;10.10;86.00
6206;DHT22;3136;48.788;9.772;2023-06-14T01:32:44;10.10;87.60
6206;DHT22;3136;48.788;9.772;2023-06-14T01:35:10;10.00;88.10
6206;DHT22;3136;48.788;9.772;2023-06-14T01:37:36;10.00;86.10
6206;DHT22;3136;48.788;9.772;2023-06-14T01:40:04;10.00;86.70
6206;DHT22;3136;48.788;9.772;2023-06-14T01:42:35;9.90;88.40
6206;DHT22;3136;48.788;9.772;2023-06-14T01:45:02;9.80;88.20
6206;DHT22;3136;48.788;9.772;2023-06-14T01:47:30;9.80;89.70
6206;DHT22;3136;48.788;9.772;2023-06-14T01:49:55;9.70;91.60
6206;DHT22;3136;48.788;9.772;2023-06-14T01:52:21;9.70;90.70
6206;DHT22;3136;48.788;9.772;2023-06-14T01:54:47;9.70;91.50
6206;DHT22;3136;48.788;9.772;2023-06-14T01:57:15;9.60;92.10
6206;DHT22;3136;48.788;9.772;2023-06-14T01:59:40;9.60;92.20
6206;DHT22;3136;48.788;9.772;2023-06-14T02:02:06;9.50;93.50
6206;DHT22;3136;48.788;9.772;2023-06-14T02:04:31;9.60;93.90
6206;DHT22;3136;48.788;9.772;2023-06-14T02:06:57;9.50;93.80
6206;DHT22;3136;48.788;9.772;2023-06-14T02:09:22;9.50;94.90
6206;DHT22;3136;48.788;9.772;2023-06-14T02:11:49;9.50;95.60
6206;DHT22;3136;48.788;9.772;2023-06-14T02:14:15;9.50;96.30
6206;DHT22;3136;48.788;9.772;2023-06-14T02:16:42;9.40;96.90
6206;DHT22;3136;48.788;9.772;2023-06-14T02:19:17;9.40;96.00
6206;DHT22;3136;48.788;9.772;2023-06-14T02:21:43;9.40;97.20
6206;DHT22;3136;48.788;9.772;2023-06-14T02:24:09;9.30;97.50
6206;DHT22;3136;48.788;9.772;2023-06-14T02:26:35;9.30;97.50
6206;DHT22;3136;48.788;9.772;2023-06-14T02:29:01;9.30;98.30
6206;DHT22;3136;48.788;9.772;2023-06-14T02:31:27;9.30;98.30
6206;DHT22;3136;48.788;9.772;2023-06-14T02:33:53;9.20;99.60
6206;DHT22;3136;48.788;9.772;2023-06-14T02:36:18;9.20;99.60
6206;DHT22;3136;48.788;9.772;2023-06-14T02:38:44;9.20;99.90
6206;DHT22;3136;48.788;9.772;2023-06-14T02:41:10;9.10;99.90
6206;DHT22;3136;48.788;9.772;2023-06-14T02:43:36;9.10;99.90
6206;DHT22;3136;48.788;9.772;2023-06-14T02:46:01;9.00;99.90
6206;DHT22;3136;48.788;9.772;2023-06-14T02:48:27;9.00;99.90
6206;DHT22;3136;48.788;9.772;2023-06-14T02:50:53;9.00;99.90
6206;DHT22;3136;48.788;9.772;2023-06-14T02:53:18;9.00;99.90
6206;DHT22;3136;48.788;9.772;2023-06-14T02:55:44;9.00;99.90
6206;DHT22;3136;48.788;9.772;2023-06-14T02:58:10;8.90;99.90
6206;DHT22;3136;48.788;9.772;2023-06-14T03:00:35;8.90;99.90
6206;DHT22;3136;48.788;9.772;2023-06-14T03:03:01;8.80;99.90
6206;DHT22;3136;48.788;9.772;2023-06-14T03:05:27;10.20;99.90
6206;DHT22;3136;48.788;9.772;2023-06-14T03:07:53;8.80;99.90
6206;DHT22;3136;48.788;9.772;2023-06-14T03:10:19;8.70;99.90
6206;DHT22;3136;48.788;9.772;2023-06-14T03:12:45;8.70;99.90
6206;DHT22;3136;48.788;9.772;2023-06-14T03:15:10;8.70;99.90
6206;DHT22;3136;48.788;9.772;2023-06-14T03:17:38;8.70;99.90
6206;DHT22;3136;48.788;9.772;2023-06-14T03:20:04;8.60;99.90
6206;DHT22;3136;48.788;9.772;2023-06-14T03:22:30;8.60;99.90
6206;DHT22;3136;48.788;9.772;2023-06-14T03:24:57;9.50;99.90
6206;DHT22;3136;48.788;9.772;2023-06-14T03:27:24;8.60;99.90
6206;DHT22;3136;48.788;9.772;2023-06-14T03:29:51;8.60;99.90
6206;DHT22;3136;48.788;9.772;2023-06-14T03:32:16;8.70;99.90
6206;DHT22;3136;48.788;9.772;2023-06-14T03:34:42;9.10;99.90
6206;DHT22;3136;48.788;9.772;2023-06-14T03:37:08;8.60;99.90
6206;DHT22;3136;48.788;9.772;2023-06-14T03:39:33;8.60;99.90
6206;DHT22;3136;48.788;9.772;2023-06-14T03:41:59;8.60;99.90
6206;DHT22;3136;48.788;9.772;2023-06-14T03:44:26;8.60;99.90
6206;DHT22;3136;48.788;9.772;2023-06-14T03:46:52;8.60;99.90
6206;DHT22;3136;48.788;9.772;2023-06-14T03:49:18;8.60;99.90
6206;DHT22;3136;48.788;9.772;2023-06-14T03:51:44;8.60;99.90
6206;DHT22;3136;48.788;9.772;2023-06-14T03:54:10;8.60;99.90
6206;DHT22;3136;48.788;9.772;2023-06-14T03:56:35;8.80;99.90
6206;DHT22;3136;48.788;9.772;2023-06-14T03:59:01;8.60;99.90
6206;DHT22;3136;48.788;9.772;2023-06-14T04:01:27;8.60;99.90
6206;DHT22;3136;48.788;9.772;2023-06-14T04:03:56;8.70;99.90
6206;DHT22;3136;48.788;9.772;2023-06-14T04:06:22;8.70;99.90
6206;DHT22;3136;48.788;9.772;2023-06-14T04:08:50;8.70;99.90
6206;DHT22;3136;48.788;9.772;2023-06-14T04:11:16;8.70;99.90
6206;DHT22;3136;48.788;9.772;2023-06-14T04:13:41;8.80;99.90
6206;DHT22;3136;48.788;9.772;2023-06-14T04:16:07;8.90;99.90
6206;DHT22;3136;48.788;9.772;2023-06-14T04:18:33;8.90;99.90
6206;DHT22;3136;48.788;9.772;2023-06-14T04:20:58;9.00;99.90
6206;DHT22;3136;48.788;9.772;2023-06-14T04:23:24;9.00;99.90
6206;DHT22;3136;48.788;9.772;2023-06-14T04:25:50;9.10;99.90
6206;DHT22;3136;48.788;9.772;2023-06-14T04:28:16;9.20;99.90
6206;DHT22;3136;48.788;9.772;2023-06-14T04:30:43;9.30;99.90
6206;DHT22;3136;48.788;9.772;2023-06-14T04:33:08;9.80;99.90
6206;DHT22;3136;48.788;9.772;2023-06-14T04:35:36;9.50;99.90
6206;DHT22;3136;48.788;9.772;2023-06-14T04:38:03;9.60;99.90
6206;DHT22;3136;48.788;9.772;2023-06-14T04:40:31;9.70;99.90
6206;DHT22;3136;48.788;9.772;2023-06-14T04:42:56;9.80;99.90
6206;DHT22;3136;48.788;9.772;2023-06-14T04:45:23;10.20;99.90
6206;DHT22;3136;48.788;9.772;2023-06-14T04:47:49;10.10;99.90
6206;DHT22;3136;48.788;9.772;2023-06-14T04:50:16;10.10;99.90
6206;DHT22;3136;48.788;9.772;2023-06-14T04:52:43;10.20;99.90
6206;DHT22;3136;48.788;9.772;2023-06-14T04:55:09;10.30;99.90
6206;DHT22;3136;48.788;9.772;2023-06-14T04:57:35;11.30;99.90
6206;DHT22;3136;48.788;9.772;2023-06-14T05:00:01;11.30;99.90
6206;DHT22;3136;48.788;9.772;2023-06-14T05:02:29;10.70;99.90
6206;DHT22;3136;48.788;9.772;2023-06-14T05:04:56;10.80;99.90
6206;DHT22;3136;48.788;9.772;2023-06-14T05:07:22;11.70;99.90
6206;DHT22;3136;48.788;9.772;2023-06-14T05:09:49;11.00;99.90
6206;DHT22;3136;48.788;9.772;2023-06-14T05:12:15;11.10;99.90
6206;DHT22;3136;48.788;9.772;2023-06-14T05:14:44;11.10;99.90
6206;DHT22;3136;48.788;9.772;2023-06-14T05:17:09;11.20;99.90
6206;DHT22;3136;48.788;9.772;2023-06-14T05:19:35;11.30;99.90
6206;DHT22;3136;48.788;9.772;2023-06-14T05:22:01;11.40;99.90
6206;DHT22;3136;48.788;9.772;2023-06-14T05:24:28;11.50;99.90
6206;DHT22;3136;48.788;9.772;2023-06-14T05:26:56;11.70;99.60
6206;DHT22;3136;48.788;9.772;2023-06-14T05:29:21;11.90;99.40
6206;DHT22;3136;48.788;9.772;2023-06-14T05:31:47;12.10;99.70
6206;DHT22;3136;48.788;9.772;2023-06-14T05:34:12;12.20;98.20
6206;DHT22;3136;48.788;9.772;2023-06-14T05:36:38;12.40;95.40
6206;DHT22;3136;48.788;9.772;2023-06-14T05:39:04;12.50;93.90
6206;DHT22;3136;48.788;9.772;2023-06-14T05:41:31;12.60;93.70
6206;DHT22;3136;48.788;9.772;2023-06-14T05:43:57;12.70;93.90
6206;DHT22;3136;48.788;9.772;2023-06-14T05:46:23;12.80;92.90
6206;DHT22;3136;48.788;9.772;2023-06-14T05:48:54;12.90;92.10
6206;DHT22;3136;48.788;9.772;2023-06-14T05:51:20;13.00;92.40
6206;DHT22;3136;48.788;9.772;2023-06-14T05:53:49;13.10;92.80
6206;DHT22;3136;48.788;9.772;2023-06-14T05:56:15;13.30;93.10
6206;DHT22;3136;48.788;9.772;2023-06-14T05:58:43;13.40;92.40
6206;DHT22;3136;48.788;9.772;2023-06-14T06:01:08;13.60;90.60
6206;DHT22;3136;48.788;9.772;2023-06-14T06:03:34;13.80;87.70
6206;DHT22;3136;48.788;9.772;2023-06-14T06:05:59;14.00;85.30
6206;DHT22;3136;48.788;9.772;2023-06-14T06:08:26;14.20;84.70
6206;DHT22;3136;48.788;9.772;2023-06-14T06:10:52;14.30;83.50
6206;DHT22;3136;48.788;9.772;2023-06-14T06:13:18;14.50;80.30
6206;DHT22;3136;48.788;9.772;2023-06-14T06:15:44;14.70;80.60
6206;DHT22;3136;48.788;9.772;2023-06-14T06:18:09;14.80;91.50
6206;DHT22;3136;48.788;9.772;2023-06-14T06:20:35;15.00;73.50
6206;DHT22;3136;48.788;9.772;2023-06-14T06:23:01;15.20;69.70
6206;DHT22;3136;48.788;9.772;2023-06-14T06:25:27;14.70;66.50
6206;DHT22;3136;48.788;9.772;2023-06-14T06:27:54;15.50;66.20
6206;DHT22;3136;48.788;9.772;2023-06-14T06:30:20;15.80;66.00
6206;DHT22;3136;48.788;9.772;2023-06-14T06:32:46;15.70;66.70
6206;DHT22;3136;48.788;9.772;2023-06-14T06:35:12;16.00;67.10
6206;DHT22;3136;48.788;9.772;2023-06-14T06:37:38;16.00;64.90
6206;DHT22;3136;48.788;9.772;2023-06-14T06:40:04;16.20;63.80
6206;DHT22;3136;48.788;9.772;2023-06-14T06:42:31;16.30;61.60
6206;DHT22;3136;48.788;9.772;2023-06-14T06:44:57;16.40;60.30
6206;DHT22;3136;48.788;9.772;2023-06-14T06:47:23;16.70;58.70
6206;DHT22;3136;48.788;9.772;2023-06-14T06:49:48;16.70;56.80
6206;DHT22;3136;48.788;9.772;2023-06-14T06:52:14;17.20;57.30
6206;DHT22;3136;48.788;9.772;2023-06-14T06:54:39;16.90;54.10
6206;DHT22;3136;48.788;9.772;2023-06-14T06:57:05;17.00;53.50
6206;DHT22;3136;48.788;9.772;2023-06-14T06:59:31;17.10;53.00
6206;DHT22;3136;48.788;9.772;2023-06-14T07:01:57;17.20;52.80
6206;DHT22;3136;48.788;9.772;2023-06-14T07:04:23;17.30;51.00
6206;DHT22;3136;48.788;9.772;2023-06-14T07:06:48;17.40;50.70
6206;DHT22;3136;48.788;9.772;2023-06-14T07:09:14;17.60;50.40
6206;DHT22;3136;48.788;9.772;2023-06-14T07:11:42;17.70;50.30
6206;DHT22;3136;48.788;9.772;2023-06-14T07:14:08;17.80;48.30
6206;DHT22;3136;48.788;9.772;2023-06-14T07:16:34;17.80;49.00
6206;DHT22;3136;48.788;9.772;2023-06-14T07:19:01;17.90;47.60
6206;DHT22;3136;48.788;9.772;2023-06-14T07:21:26;17.80;48.00
6206;DHT22;3136;48.788;9.772;2023-06-14T07:23:53;18.10;49.40
6206;DHT22;3136;48.788;9.772;2023-06-14T07:26:19;18.10;51.20
6206;DHT22;3136;48.788;9.772;2023-06-14T07:28:44;18.20;47.60
6206;DHT22;3136;48.788;9.772;2023-06-14T07:31:10;18.50;47.90
6206;DHT22;3136;48.788;9.772;2023-06-14T07:33:36;18.40;48.50
6206;DHT22;3136;48.788;9.772;2023-06-14T07:36:02;18.50;46.10
6206;DHT22;3136;48.788;9.772;2023-06-14T07:38:28;18.90;45.00
6206;DHT22;3136;48.788;9.772;2023-06-14T07:40:53;19.20;45.70
6206;DHT22;3136;48.788;9.772;2023-06-14T07:43:19;18.80;44.70
6206;DHT22;3136;48.788;9.772;2023-06-14T07:45:45;18.90;44.00
6206;DHT22;3136;48.788;9.772;2023-06-14T07:48:11;19.00;43.70
6206;DHT22;3136;48.788;9.772;2023-06-14T07:50:37;19.10;41.80
6206;DHT22;3136;48.788;9.772;2023-06-14T07:53:02;19.30;43.10
6206;DHT22;3136;48.788;9.772;2023-06-14T07:55:28;19.70;42.00
6206;DHT22;3136;48.788;9.772;2023-06-14T07:57:54;19.30;40.80
6206;DHT22;3136;48.788;9.772;2023-06-14T08:00:20;19.60;41.80
6206;DHT22;3136;48.788;9.772;2023-06-14T08:02:46;19.50;40.30
6206;DHT22;3136;48.788;9.772;2023-06-14T08:05:12;19.60;38.60
6206;DHT22;3136;48.788;9.772;2023-06-14T08:07:39;19.60;37.80
6206;DHT22;3136;48.788;9.772;2023-06-14T08:10:07;20.10;36.80
6206;DHT22;3136;48.788;9.772;2023-06-14T08:12:33;19.80;36.20
6206;DHT22;3136;48.788;9.772;2023-06-14T08:15:00;19.90;36.80
6206;DHT22;3136;48.788;9.772;2023-06-14T08:17:26;20.00;56.40
6206;DHT22;3136;48.788;9.772;2023-06-14T08:19:52;20.00;35.80
6206;DHT22;3136;48.788;9.772;2023-06-14T08:22:20;20.20;34.10
6206;DHT22;3136;48.788;9.772;2023-06-14T08:24:47;20.30;35.10
6206;DHT22;3136;48.788;9.772;2023-06-14T08:27:13;20.30;33.90
6206;DHT22;3136;48.788;9.772;2023-06-14T08:29:38;20.40;33.80
6206;DHT22;3136;48.788;9.772;2023-06-14T08:32:06;20.40;33.70
6206;DHT22;3136;48.788;9.772;2023-06-14T08:34:32;20.50;33.70
6206;DHT22;3136;48.788;9.772;2023-06-14T08:36:57;20.50;31.90
6206;DHT22;3136;48.788;9.772;2023-06-14T08:39:23;20.60;32.40
6206;DHT22;3136;48.788;9.772;2023-06-14T08:41:50;20.80;31.30
6206;DHT22;3136;48.788;9.772;2023-06-14T08:44:16;20.70;31.50
6206;DHT22;3136;48.788;9.772;2023-06-14T08:46:43;20.90;30.90
6206;DHT22;3136;48.788;9.772;2023-06-14T08:49:11;21.10;30.20
6206;DHT22;3136;48.788;9.772;2023-06-14T08:51:37;21.00;35.40
6206;DHT22;3136;48.788;9.772;2023-06-14T08:54:03;21.00;29.50
6206;DHT22;3136;48.788;9.772;2023-06-14T08:56:30;21.20;29.40
6206;DHT22;3136;48.788;9.772;2023-06-14T08:58:58;21.30;28.30
6206;DHT22;3136;48.788;9.772;2023-06-14T09:01:28;21.60;29.00
6206;DHT22;3136;48.788;9.772;2023-06-14T09:03:54;21.60;28.50
6206;DHT22;3136;48.788;9.772;2023-06-14T09:06:23;21.80;29.00
6206;DHT22;3136;48.788;9.772;2023-06-14T09:08:50;21.80;27.40
6206;DHT22;3136;48.788;9.772;2023-06-14T09:11:18;21.80;27.80
6206;DHT22;3136;48.788;9.772;2023-06-14T09:13:45;21.90;25.90
6206;DHT22;3136;48.788;9.772;2023-06-14T09:16:11;22.00;26.80
6206;DHT22;3136;48.788;9.772;2023-06-14T09:18:41;22.10;26.60
6206;DHT22;3136;48.788;9.772;2023-06-14T09:21:09;22.00;25.70
6206;DHT22;3136;48.788;9.772;2023-06-14T09:23:39;22.00;26.40
6206;DHT22;3136;48.788;9.772;2023-06-14T09:26:23;22.00;25.80
6206;DHT22;3136;48.788;9.772;2023-06-14T09:28:50;22.00;25.90
6206;DHT22;3136;48.788;9.772;2023-06-14T09:31:20;22.30;25.80
6206;DHT22;3136;48.788;9.772;2023-06-14T09:33:48;22.50;25.90
6206;DHT22;3136;48.788;9.772;2023-06-14T09:36:24;22.70;25.00
6206;DHT22;3136;48.788;9.772;2023-06-14T09:39:03;22.80;22.90
6206;DHT22;3136;48.788;9.772;2023-06-14T09:41:37;22.90;24.00
6206;DHT22;3136;48.788;9.772;2023-06-14T09:44:05;23.00;23.10
6206;DHT22;3136;48.788;9.772;2023-06-14T09:46:32;23.00;22.80
6206;DHT22;3136;48.788;9.772;2023-06-14T09:48:58;23.00;22.40
6206;DHT22;3136;48.788;9.772;2023-06-14T09:51:24;23.30;22.20
6206;DHT22;3136;48.788;9.772;2023-06-14T09:53:51;23.40;22.10
6206;DHT22;3136;48.788;9.772;2023-06-14T09:56:29;23.60;20.20
6206;DHT22;3136;48.788;9.772;2023-06-14T09:58:58;23.60;20.90
6206;DHT22;3136;48.788;9.772;2023-06-14T10:01:26;23.70;20.20
6206;DHT22;3136;48.788;9.772;2023-06-14T10:03:55;23.80;19.90
6206;DHT22;3136;48.788;9.772;2023-06-14T10:06:25;23.90;19.80
6206;DHT22;3136;48.788;9.772;2023-06-14T10:08:59;24.00;19.10
6206;DHT22;3136;48.788;9.772;2023-06-14T10:11:31;24.10;19.50
6206;DHT22;3136;48.788;9.772;2023-06-14T10:13:58;24.00;35.00
6206;DHT22;3136;48.788;9.772;2023-06-14T10:16:49;23.90;18.40
6206;DHT22;3136;48.788;9.772;2023-06-14T10:19:24;24.00;17.30
6206;DHT22;3136;48.788;9.772;2023-06-14T10:22:10;24.30;18.20
6206;DHT22;3136;48.788;9.772;2023-06-14T10:24:41;24.40;15.20
6206;DHT22;3136;48.788;9.772;2023-06-14T10:27:08;24.40;18.00
6206;DHT22;3136;48.788;9.772;2023-06-14T10:32:25;24.80;31.10
6206;DHT22;3136;48.788;9.772;2023-06-14T10:35:06;24.80;15.50
6206;DHT22;3136;48.788;9.772;2023-06-14T10:37:32;24.90;15.30
6206;DHT22;3136;48.788;9.772;2023-06-14T10:39:58;25.10;14.70
6206;DHT22;3136;48.788;9.772;2023-06-14T10:42:29;25.40;14.40
6206;DHT22;3136;48.788;9.772;2023-06-14T10:44:57;25.40;14.40
6206;DHT22;3136;48.788;9.772;2023-06-14T10:47:32;25.70;11.50
6206;DHT22;3136;48.788;9.772;2023-06-14T10:50:07;26.30;11.50
6206;DHT22;3136;48.788;9.772;2023-06-14T10:52:37;26.90;8.50
6206;DHT22;3136;48.788;9.772;2023-06-14T10:55:08;27.20;7.70
6206;DHT22;3136;48.788;9.772;2023-06-14T10:57:47;27.50;6.80
6206;DHT22;3136;48.788;9.772;2023-06-14T11:00:17;27.70;6.60
6206;DHT22;3136;48.788;9.772;2023-06-14T11:05:52;28.20;4.80
6206;DHT22;3136;48.788;9.772;2023-06-14T11:10:44;29.10;2.90
6206;DHT22;3136;48.788;9.772;2023-06-14T11:13:13;29.50;3.20
6206;DHT22;3136;48.788;9.772;2023-06-14T11:15:44;30.00;2.80
6206;DHT22;3136;48.788;9.772;2023-06-14T11:18:12;30.50;2.30
6206;DHT22;3136;48.788;9.772;2023-06-14T11:20:39;30.70;2.00
6206;DHT22;3136;48.788;9.772;2023-06-14T11:23:05;30.70;2.00
6206;DHT22;3136;48.788;9.772;2023-06-14T11:25:31;30.90;1.00
6206;DHT22;3136;48.788;9.772;2023-06-14T11:27:57;31.00;1.10
6206;DHT22;3136;48.788;9.772;2023-06-14T11:30:24;31.00;1.00
6206;DHT22;3136;48.788;9.772;2023-06-14T11:32:52;31.10;1.00
6206;DHT22;3136;48.788;9.772;2023-06-14T11:35:19;31.30;1.00
6206;DHT22;3136;48.788;9.772;2023-06-14T11:37:46;31.50;1.00
6206;DHT22;3136;48.788;9.772;2023-06-14T11:40:14;32.00;1.00
6206;DHT22;3136;48.788;9.772;2023-06-14T11:42:41;32.30;1.00
6206;DHT22;3136;48.788;9.772;2023-06-14T11:45:10;32.30;1.00
6206;DHT22;3136;48.788;9.772;2023-06-14T11:47:38;31.90;1.00
6206;DHT22;3136;48.788;9.772;2023-06-14T11:50:06;31.30;1.00
6206;DHT22;3136;48.788;9.772;2023-06-14T11:52:32;30.40;1.00
6206;DHT22;3136;48.788;9.772;2023-06-14T11:54:58;30.30;1.00
6206;DHT22;3136;48.788;9.772;2023-06-14T11:57:25;31.00;1.00
6206;DHT22;3136;48.788;9.772;2023-06-14T11:59:51;32.00;1.00
6206;DHT22;3136;48.788;9.772;2023-06-14T12:02:17;32.40;1.00
6206;DHT22;3136;48.788;9.772;2023-06-14T12:04:44;31.00;1.00
6206;DHT22;3136;48.788;9.772;2023-06-14T12:07:10;29.20;1.00
6206;DHT22;3136;48.788;9.772;2023-06-14T12:10:03;28.00;1.00
6206;DHT22;3136;48.788;9.772;2023-06-14T12:12:35;27.10;1.80
6206;DHT22;3136;48.788;9.772;2023-06-14T12:15:04;26.50;2.10
6206;DHT22;3136;48.788;9.772;2023-06-14T12:17:37;26.10;2.50
6206;DHT22;3136;48.788;9.772;2023-06-14T12:20:13;25.90;3.70
6206;DHT22;3136;48.788;9.772;2023-06-14T12:22:46;26.20;2.30
6206;DHT22;3136;48.788;9.772;2023-06-14T12:25:32;27.00;2.70
6206;DHT22;3136;48.788;9.772;2023-06-14T12:27:59;28.50;1.00
6206;DHT22;3136;48.788;9.772;2023-06-14T12:30:25;30.10;1.00
6206;DHT22;3136;48.788;9.772;2023-06-14T12:32:51;31.20;1.00
6206;DHT22;3136;48.788;9.772;2023-06-14T12:35:17;32.10;1.00
6206;DHT22;3136;48.788;9.772;2023-06-14T12:37:44;32.50;1.00
6206;DHT22;3136;48.788;9.772;2023-06-14T12:40:11;31.70;1.00
6206;DHT22;3136;48.788;9.772;2023-06-14T12:42:37;31.80;1.00
6206;DHT22;3136;48.788;9.772;2023-06-14T12:45:03;32.30;1.00
6206;DHT22;3136;48.788;9.772;2023-06-14T12:47:28;32.70;1.00
6206;DHT22;3136;48.788;9.772;2023-06-14T12:49:54;33.00;1.00
6206;DHT22;3136;48.788;9.772;2023-06-14T12:52:19;33.20;1.00
6206;DHT22;3136;48.788;9.772;2023-06-14T12:54:45;33.30;1.00
6206;DHT22;3136;48.788;9.772;2023-06-14T12:57:10;33.50;1.00
6206;DHT22;3136;48.788;9.772;2023-06-14T12:59:36;33.70;1.00
6206;DHT22;3136;48.788;9.772;2023-06-14T13:02:15;34.00;1.00
6206;DHT22;3136;48.788;9.772;2023-06-14T13:04:40;33.40;1.00
6206;DHT22;3136;48.788;9.772;2023-06-14T13:07:06;32.10;1.00
6206;DHT22;3136;48.788;9.772;2023-06-14T13:09:32;30.80;1.00
6206;DHT22;3136;48.788;9.772;2023-06-14T13:11:57;29.40;1.00
6206;DHT22;3136;48.788;9.772;2023-06-14T13:14:23;28.50;1.00
6206;DHT22;3136;48.788;9.772;2023-06-14T13:16:48;27.90;1.00
6206;DHT22;3136;48.788;9.772;2023-06-14T13:19:14;28.10;1.00
6206;DHT22;3136;48.788;9.772;2023-06-14T13:21:39;28.80;1.00
6206;DHT22;3136;48.788;9.772;2023-06-14T13:24:05;29.00;1.00
6206;DHT22;3136;48.788;9.772;2023-06-14T13:26:33;28.50;1.00
6206;DHT22;3136;48.788;9.772;2023-06-14T13:28:59;28.00;1.00
6206;DHT22;3136;48.788;9.772;2023-06-14T13:31:25;27.30;1.00
6206;DHT22;3136;48.788;9.772;2023-06-14T13:33:50;26.70;1.00
6206;DHT22;3136;48.788;9.772;2023-06-14T13:36:16;26.30;1.70
6206;DHT22;3136;48.788;9.772;2023-06-14T13:38:41;25.90;1.40
6206;DHT22;3136;48.788;9.772;2023-06-14T13:41:07;25.70;1.10
6206;DHT22;3136;48.788;9.772;2023-06-14T13:43:32;25.50;1.10
6206;DHT22;3136;48.788;9.772;2023-06-14T13:45:58;25.40;2.70
6206;DHT22;3136;48.788;9.772;2023-06-14T13:48:24;25.40;2.60
6206;DHT22;3136;48.788;9.772;2023-06-14T13:50:49;25.40;2.40
6206;DHT22;3136;48.788;9.772;2023-06-14T13:53:15;25.60;2.20
6206;DHT22;3136;48.788;9.772;2023-06-14T13:55:41;26.30;3.20
6206;DHT22;3136;48.788;9.772;2023-06-14T13:58:06;26.40;1.00
6206;DHT22;3136;48.788;9.772;2023-06-14T14:00:32;26.40;1.20
6206;DHT22;3136;48.788;9.772;2023-06-14T14:02:57;26.20;1.00
6206;DHT22;3136;48.788;9.772;2023-06-14T14:05:25;25.80;1.60
6206;DHT22;3136;48.788;9.772;2023-06-14T14:07:55;25.70;1.40
6206;DHT22;3136;48.788;9.772;2023-06-14T14:10:21;25.60;2.40
6206;DHT22;3136;48.788;9.772;2023-06-14T14:12:46;25.50;2.50
6206;DHT22;3136;48.788;9.772;2023-06-14T14:15:12;25.40;1.60
6206;DHT22;3136;48.788;9.772;2023-06-14T14:17:40;25.40;3.70
6206;DHT22;3136;48.788;9.772;2023-06-14T14:20:06;25.20;3.20
6206;DHT22;3136;48.788;9.772;2023-06-14T14:22:32;25.30;2.00
6206;DHT22;3136;48.788;9.772;2023-06-14T14:24:58;25.20;2.70
6206;DHT22;3136;48.788;9.772;2023-06-14T14:27:24;25.30;9.40
6206;DHT22;3136;48.788;9.772;2023-06-14T14:29:49;25.40;2.10
6206;DHT22;3136;48.788;9.772;2023-06-14T14:32:15;25.50;2.70
6206;DHT22;3136;48.788;9.772;2023-06-14T14:34:41;25.60;2.60
6206;DHT22;3136;48.788;9.772;2023-06-14T14:37:06;25.60;2.30
6206;DHT22;3136;48.788;9.772;2023-06-14T14:39:32;25.70;2.40
6206;DHT22;3136;48.788;9.772;2023-06-14T14:41:58;25.70;2.00
6206;DHT22;3136;48.788;9.772;2023-06-14T14:44:23;25.60;2.30
6206;DHT22;3136;48.788;9.772;2023-06-14T14:46:49;25.50;2.80
6206;DHT22;3136;48.788;9.772;2023-06-14T14:49:14;25.70;2.60
6206;DHT22;3136;48.788;9.772;2023-06-14T14:51:40;25.70;2.40
6206;DHT22;3136;48.788;9.772;2023-06-14T14:54:06;25.70;2.30
6206;DHT22;3136;48.788;9.772;2023-06-14T14:56:32;25.60;2.20
6206;DHT22;3136;48.788;9.772;2023-06-14T14:58:57;25.50;2.20
6206;DHT22;3136;48.788;9.772;2023-06-14T15:01:23;25.40;2.70
6206;DHT22;3136;48.788;9.772;2023-06-14T15:03:48;25.20;2.80
6206;DHT22;3136;48.788;9.772;2023-06-14T15:06:14;25.10;2.10
6206;DHT22;3136;48.788;9.772;2023-06-14T15:08:40;25.00;3.10
6206;DHT22;3136;48.788;9.772;2023-06-14T15:11:05;24.90;3.70
6206;DHT22;3136;48.788;9.772;2023-06-14T15:13:32;24.80;5.20
6206;DHT22;3136;48.788;9.772;2023-06-14T15:15:57;24.50;19.90
6206;DHT22;3136;48.788;9.772;2023-06-14T15:18:23;24.60;5.00
6206;DHT22;3136;48.788;9.772;2023-06-14T15:20:49;24.50;4.90
6206;DHT22;3136;48.788;9.772;2023-06-14T15:23:15;24.40;4.30
6206;DHT22;3136;48.788;9.772;2023-06-14T15:25:45;24.30;4.90
6206;DHT22;3136;48.788;9.772;2023-06-14T15:28:12;24.20;5.70
6206;DHT22;3136;48.788;9.772;2023-06-14T15:30:38;24.20;4.90
6206;DHT22;3136;48.788;9.772;2023-06-14T15:33:03;24.00;4.60
6206;DHT22;3136;48.788;9.772;2023-06-14T15:35:29;24.10;4.70
6206;DHT22;3136;48.788;9.772;2023-06-14T15:37:54;24.10;4.90
6206;DHT22;3136;48.788;9.772;2023-06-14T15:40:20;24.00;5.70
6206;DHT22;3136;48.788;9.772;2023-06-14T15:42:45;24.00;4.80
6206;DHT22;3136;48.788;9.772;2023-06-14T15:45:11;24.00;5.40
6206;DHT22;3136;48.788;9.772;2023-06-14T15:47:37;23.90;4.40
6206;DHT22;3136;48.788;9.772;2023-06-14T15:50:02;24.00;5.20
6206;DHT22;3136;48.788;9.772;2023-06-14T15:52:30;23.90;5.10
6206;DHT22;3136;48.788;9.772;2023-06-14T15:54:56;23.90;5.70
6206;DHT22;3136;48.788;9.772;2023-06-14T15:57:21;23.90;5.50
6206;DHT22;3136;48.788;9.772;2023-06-14T15:59:47;23.80;6.00
6206;DHT22;3136;48.788;9.772;2023-06-14T16:02:13;23.90;4.50
6206;DHT22;3136;48.788;9.772;2023-06-14T16:04:39;23.80;5.00
6206;DHT22;3136;48.788;9.772;2023-06-14T16:07:04;23.80;5.70
6206;DHT22;3136;48.788;9.772;2023-06-14T16:09:30;23.90;5.60
6206;DHT22;3136;48.788;9.772;2023-06-14T16:11:55;24.00;5.10
6206;DHT22;3136;48.788;9.772;2023-06-14T16:14:22;24.10;5.20
6206;DHT22;3136;48.788;9.772;2023-06-14T16:16:47;24.10;4.70
6206;DHT22;3136;48.788;9.772;2023-06-14T16:19:13;24.00;4.90